Time;durP1;ratioP1;P1;durP2;ratioP2;P2;SDS_P1;SDS_P2;PMS_P1;PMS_P2;Temp;Humidity;BMP_temperature;BMP_pressure;BME280_temperature;BME280_humidity;BME280_pressure;Samples;Min_cycle;Max_cycle;Signal;HPM_P1;HPM_P2
2021/04/08 00:01:59;;;;;;;0.20;0.20;;;;;;;0.54;82.59;100919.09;5063574;28;20856;-57
2021/04/08 00:04:26;;;;;;;0.20;0.10;;;;;;;0.43;82.88;100925.84;5066576;28;20935;-57
2021/04/08 00:06:52;;;;;;;0.20;0.10;;;;;;;0.49;82.48;100932.94;5062901;28;20454;-58
2021/04/08 00:09:18;;;;;;;0.20;0.10;;;;;;;0.45;82.00;100933.72;5067602;28;20474;-58
2021/04/08 00:11:44;;;;;;;0.20;0.10;;;;;;;0.28;82.18;100931.63;5066127;28;20454;-58
2021/04/08 00:14:11;;;;;;;2.30;2.20;;;;;;;0.16;82.77;100933.06;5061388;28;20446;-58
2021/04/08 00:16:38;;;;;;;0.20;0.20;;;;;;;-0.11;83.50;100933.28;5061905;28;20487;-58
2021/04/08 00:19:08;;;;;;;0.20;0.10;;;;;;;-0.16;83.64;100932.25;5066959;28;20532;-57
2021/04/08 00:21:35;;;;;;;0.20;0.10;;;;;;;-0.03;83.34;100929.97;5066359;28;20947;-58
2021/04/08 00:24:01;;;;;;;0.20;0.20;;;;;;;-0.08;82.94;100934.22;5060412;28;20454;-58
2021/04/08 00:26:27;;;;;;;0.20;0.10;;;;;;;-0.14;83.65;100936.66;5061111;28;20443;-58
2021/04/08 00:28:54;;;;;;;0.20;0.20;;;;;;;-0.30;84.60;100937.13;5066852;28;20996;-58
2021/04/08 00:31:20;;;;;;;0.20;0.10;;;;;;;-0.26;84.46;100928.53;5066149;28;20450;-58
2021/04/08 00:33:46;;;;;;;0.20;0.10;;;;;;;-0.23;83.64;100928.63;5054941;28;21017;-58
2021/04/08 00:36:12;;;;;;;0.20;0.10;;;;;;;-0.24;84.25;100926.84;5066548;28;20543;-58
2021/04/08 00:38:38;;;;;;;0.20;0.10;;;;;;;-0.25;83.95;100924.22;5067460;28;20454;-58
2021/04/08 00:41:04;;;;;;;0.20;0.10;;;;;;;-0.05;83.56;100931.69;5066266;28;20515;-58
2021/04/08 00:43:30;;;;;;;0.20;0.10;;;;;;;-0.36;84.19;100935.25;5059963;28;20454;-57
2021/04/08 00:45:57;;;;;;;0.20;0.10;;;;;;;-0.36;84.34;100939.59;5060673;28;20939;-57
2021/04/08 00:48:23;;;;;;;0.20;0.10;;;;;;;-0.31;84.42;100932.75;5068240;28;20458;-58
2021/04/08 00:50:49;;;;;;;0.20;0.10;;;;;;;-0.40;84.13;100945.59;5067041;28;20861;-57
2021/04/08 00:53:19;;;;;;;0.20;0.10;;;;;;;-0.52;84.62;100940.94;5045870;28;20461;-58
2021/04/08 00:55:51;;;;;;;0.20;0.20;;;;;;;-0.45;84.69;100948.06;5059251;28;20513;-57
2021/04/08 00:58:19;;;;;;;0.20;0.10;;;;;;;-0.38;84.26;100939.56;5061635;28;20433;-58
2021/04/08 01:00:46;;;;;;;0.20;0.10;;;;;;;-0.41;84.26;100946.41;5059594;28;21018;-57
2021/04/08 01:03:14;;;;;;;0.20;0.10;;;;;;;-0.52;84.22;100943.53;5064271;28;20454;-58
2021/04/08 01:05:40;;;;;;;0.20;0.20;;;;;;;-0.48;84.57;100944.50;5066570;28;20946;-58
2021/04/08 01:08:07;;;;;;;0.20;0.10;;;;;;;-0.51;84.86;100939.19;5062090;28;20960;-57
2021/04/08 01:10:34;;;;;;;0.20;0.10;;;;;;;-0.55;85.44;100940.81;5058972;28;20509;-57
2021/04/08 01:13:07;;;;;;;0.20;0.10;;;;;;;-0.49;85.27;100943.59;5063893;28;20458;-58
2021/04/08 01:15:34;;;;;;;0.20;0.10;;;;;;;-0.64;86.04;100951.91;5066088;28;20504;-58
2021/04/08 01:18:21;;;;;;;0.20;0.10;;;;;;;-0.42;85.59;100949.88;5063094;28;20458;-58
2021/04/08 01:21:12;;;;;;;0.20;0.10;;;;;;;-0.45;86.18;100958.50;5065824;28;20512;-58
2021/04/08 01:24:06;;;;;;;0.20;0.10;;;;;;;-0.32;85.18;100960.59;5067468;28;20447;-58
2021/04/08 01:26:44;;;;;;;0.20;0.10;;;;;;;-0.26;85.57;100959.00;5065584;28;20434;-58
2021/04/08 01:29:58;;;;;;;0.20;0.10;;;;;;;-0.31;85.28;100964.97;5061671;28;20465;-58
2021/04/08 01:32:27;;;;;;;0.20;0.10;;;;;;;-0.44;85.75;100965.50;5063484;28;20455;-57
2021/04/08 01:34:57;;;;;;;0.20;0.10;;;;;;;-0.32;85.49;100957.97;5057309;28;20481;-58
2021/04/08 01:37:28;;;;;;;0.20;0.10;;;;;;;-0.38;86.08;100963.06;5062862;28;20482;-58
2021/04/08 01:39:57;;;;;;;0.20;0.10;;;;;;;-0.24;86.33;100958.19;5066282;28;20471;-58
2021/04/08 01:42:24;;;;;;;0.20;0.10;;;;;;;-0.22;85.97;100961.72;5063453;28;20450;-58
2021/04/08 01:44:55;;;;;;;0.20;0.10;;;;;;;0.33;85.29;100956.97;5059318;28;20446;-58
2021/04/08 01:47:23;;;;;;;0.20;0.10;;;;;;;-0.06;85.05;100961.25;5060833;28;20447;-59
2021/04/08 01:49:51;;;;;;;0.20;0.10;;;;;;;-0.06;86.02;100958.66;5071049;28;20480;-57
2021/04/08 01:52:19;;;;;;;0.20;0.20;;;;;;;0.25;85.97;100957.66;5072462;28;20830;-57
2021/04/08 01:54:52;;;;;;;0.20;0.20;;;;;;;0.10;86.51;100959.91;5058797;28;20446;-58
2021/04/08 01:57:20;;;;;;;0.20;0.13;;;;;;;0.15;86.48;100968.75;5071952;28;20998;-58
2021/04/08 01:59:46;;;;;;;0.20;0.10;;;;;;;-0.14;87.20;100969.75;5045312;28;20539;-57
2021/04/08 02:02:14;;;;;;;0.20;0.10;;;;;;;0.03;86.94;100971.06;5060571;28;20537;-57
2021/04/08 02:04:42;;;;;;;0.20;0.10;;;;;;;-0.01;86.92;100962.25;5067078;28;20446;-57
2021/04/08 02:07:10;;;;;;;0.20;0.10;;;;;;;0.02;87.56;100966.69;5057884;28;20446;-57
2021/04/08 02:09:38;;;;;;;0.20;0.10;;;;;;;-0.08;87.89;100964.69;5057377;28;20559;-57
2021/04/08 02:12:07;;;;;;;0.20;0.10;;;;;;;-0.22;88.32;100971.28;5047265;28;20936;-58
2021/04/08 02:14:36;;;;;;;0.20;0.10;;;;;;;0.00;88.14;100971.00;5064235;28;20447;-57
2021/04/08 02:17:03;;;;;;;0.20;0.10;;;;;;;0.24;87.16;100970.69;5065134;28;20481;-57
2021/04/08 02:19:32;;;;;;;0.20;0.10;;;;;;;0.29;86.80;100975.22;5060932;28;20515;-57
2021/04/08 02:21:59;;;;;;;0.20;0.10;;;;;;;0.37;86.44;100975.38;5058508;28;20500;-57
2021/04/08 02:24:26;;;;;;;0.20;0.10;;;;;;;0.29;87.22;100976.94;5062442;28;20859;-57
2021/04/08 02:26:52;;;;;;;0.20;0.10;;;;;;;0.35;87.76;100982.31;5064981;28;20451;-57
2021/04/08 02:29:21;;;;;;;0.20;0.10;;;;;;;0.28;86.97;100977.78;5062127;28;20870;-57
2021/04/08 02:31:49;;;;;;;0.20;0.10;;;;;;;0.02;88.65;100974.53;5058822;28;20522;-58
2021/04/08 02:34:16;;;;;;;0.20;0.10;;;;;;;-0.02;87.72;100975.28;5065702;28;20454;-57
2021/04/08 02:36:42;;;;;;;0.20;0.10;;;;;;;-0.04;89.01;100977.84;5069556;28;20856;-57
2021/04/08 02:39:10;;;;;;;0.20;0.10;;;;;;;-0.02;88.58;100981.38;5067358;28;20523;-58
2021/04/08 02:41:45;;;;;;;0.20;0.10;;;;;;;-0.16;89.55;100974.03;5067097;28;20518;-57
2021/04/08 02:44:16;;;;;;;0.20;0.10;;;;;;;0.07;87.62;100983.34;5064344;28;20931;-58
2021/04/08 02:46:43;;;;;;;0.20;0.10;;;;;;;-0.25;88.67;100979.94;5069140;28;20948;-57
2021/04/08 02:49:10;;;;;;;0.20;0.10;;;;;;;-0.04;89.39;100992.66;5068994;28;20584;-58
2021/04/08 02:51:48;;;;;;;0.20;0.20;;;;;;;-0.16;88.43;100981.88;5062357;28;20503;-58
2021/04/08 02:54:38;;;;;;;0.20;0.10;;;;;;;-0.16;89.40;100990.59;5062045;28;20496;-58
2021/04/08 02:57:08;;;;;;;0.20;0.10;;;;;;;-0.27;89.92;100985.94;5063630;28;20478;-58
2021/04/08 02:59:59;;;;;;;0.20;0.10;;;;;;;-0.37;90.91;100988.31;5069201;28;20497;-58
2021/04/08 03:02:29;;;;;;;0.20;0.10;;;;;;;-0.18;89.59;100989.69;5068699;28;20450;-58
2021/04/08 03:04:57;;;;;;;0.20;0.10;;;;;;;-0.17;89.97;100988.84;5065179;28;20438;-57
2021/04/08 03:07:29;;;;;;;0.20;0.10;;;;;;;-0.19;89.42;100997.50;5061593;28;20492;-58
2021/04/08 03:09:57;;;;;;;0.20;0.10;;;;;;;-0.18;89.75;101002.75;5064885;28;20531;-58
2021/04/08 03:12:28;;;;;;;0.20;0.10;;;;;;;-0.08;90.25;100996.03;5068557;28;20500;-58
2021/04/08 03:14:56;;;;;;;0.20;0.10;;;;;;;0.00;90.53;100999.75;5066788;28;20507;-58
2021/04/08 03:17:28;;;;;;;0.20;0.10;;;;;;;-0.10;90.00;101003.84;5061073;28;20994;-58
2021/04/08 03:19:58;;;;;;;0.20;0.10;;;;;;;0.00;90.83;101010.19;5062724;28;20474;-58
2021/04/08 03:22:25;;;;;;;0.20;0.10;;;;;;;0.06;90.41;101010.34;5068172;28;20850;-57
2021/04/08 03:24:55;;;;;;;0.20;0.20;;;;;;;0.07;90.50;101011.22;5068579;28;20446;-57
2021/04/08 03:27:24;;;;;;;0.20;0.10;;;;;;;0.26;89.85;101013.44;5067926;28;20454;-58
2021/04/08 03:29:51;;;;;;;0.20;0.10;;;;;;;0.55;89.23;101014.16;5067035;28;20476;-58
2021/04/08 03:32:18;;;;;;;0.20;0.10;;;;;;;0.52;89.01;101021.91;5062880;28;20454;-56
2021/04/08 03:34:46;;;;;;;0.20;0.10;;;;;;;0.35;90.63;101015.41;5061084;28;20489;-57
2021/04/08 03:37:13;;;;;;;0.20;0.10;;;;;;;0.50;89.61;101024.50;5066867;28;20490;-57
2021/04/08 03:39:40;;;;;;;0.20;0.10;;;;;;;0.29;90.54;101017.03;5067361;28;20478;-57
2021/04/08 03:42:16;;;;;;;0.20;0.10;;;;;;;0.41;90.02;101019.06;5062170;28;20449;-56
2021/04/08 03:44:43;;;;;;;0.20;0.10;;;;;;;0.51;89.72;101021.03;5061249;28;20807;-56
2021/04/08 03:47:10;;;;;;;0.20;0.10;;;;;;;0.47;90.25;101021.81;5064433;28;20955;-56
2021/04/08 03:49:37;;;;;;;0.20;0.10;;;;;;;0.53;89.64;101023.69;5069969;28;20563;-56
2021/04/08 03:52:06;;;;;;;0.20;0.10;;;;;;;0.54;89.74;101022.84;5074404;28;20453;-56
2021/04/08 03:54:35;;;;;;;0.20;0.10;;;;;;;0.71;90.44;101025.88;5060685;28;20575;-56
2021/04/08 03:57:02;;;;;;;0.20;0.10;;;;;;;0.44;90.67;101031.31;5073709;28;21039;-56
2021/04/08 03:59:29;;;;;;;0.20;0.10;;;;;;;0.27;91.84;101029.19;5060597;28;20842;-57
2021/04/08 04:01:57;;;;;;;0.20;0.10;;;;;;;0.43;91.54;101029.56;5062338;28;20450;-57
2021/04/08 04:04:24;;;;;;;0.20;0.10;;;;;;;0.48;91.32;101034.03;5065707;28;20895;-57
2021/04/08 04:06:52;;;;;;;0.20;0.10;;;;;;;0.53;91.53;101037.63;5062347;28;20443;-57
2021/04/08 04:09:19;;;;;;;0.20;0.10;;;;;;;0.55;90.97;101037.72;5067110;28;20475;-57
2021/04/08 04:11:48;;;;;;;0.40;0.40;;;;;;;0.62;90.82;101042.22;5065388;28;21002;-56
2021/04/08 04:14:20;;;;;;;0.20;0.10;;;;;;;0.68;91.04;101039.72;5060597;28;20873;-56
2021/04/08 04:16:49;;;;;;;0.20;0.10;;;;;;;0.74;90.50;101036.41;5061881;28;20490;-57
2021/04/08 04:19:16;;;;;;;0.20;0.10;;;;;;;0.81;90.16;101044.41;5067254;28;20478;-56
2021/04/08 04:21:42;;;;;;;0.20;0.20;;;;;;;0.79;90.07;101040.00;5066797;28;20815;-56
2021/04/08 04:24:09;;;;;;;0.20;0.10;;;;;;;0.89;90.21;101045.47;5060008;28;20446;-57
2021/04/08 04:26:35;;;;;;;0.20;0.10;;;;;;;0.83;91.22;101042.72;5060789;28;20888;-56
2021/04/08 04:29:02;;;;;;;0.20;0.10;;;;;;;0.87;90.47;101047.19;5066967;28;20528;-56
2021/04/08 04:31:32;;;;;;;0.20;0.20;;;;;;;0.95;89.82;101044.72;5066681;28;20449;-56
2021/04/08 04:33:58;;;;;;;0.30;0.20;;;;;;;0.87;91.09;101046.28;5046840;28;21004;-56
2021/04/08 04:36:24;;;;;;;0.20;0.20;;;;;;;0.86;90.47;101052.38;5059951;28;20493;-56
2021/04/08 04:38:50;;;;;;;0.20;0.10;;;;;;;0.87;90.51;101046.28;5066766;28;20467;-56
2021/04/08 04:41:16;;;;;;;0.20;0.10;;;;;;;0.79;90.83;101059.19;5066979;28;20867;-57
2021/04/08 04:43:43;;;;;;;0.20;0.10;;;;;;;1.01;90.30;101054.47;5060346;28;20891;-56
2021/04/08 04:46:10;;;;;;;0.20;0.10;;;;;;;0.96;90.77;101061.31;5060114;28;20592;-56
2021/04/08 04:48:37;;;;;;;0.20;0.10;;;;;;;1.02;90.35;101061.47;5065539;28;20451;-56
2021/04/08 04:51:04;;;;;;;0.20;0.10;;;;;;;1.03;91.36;101069.34;5066861;28;20943;-56
2021/04/08 04:53:31;;;;;;;0.20;0.20;;;;;;;1.06;90.30;101063.28;5064360;28;20963;-56
2021/04/08 04:55:57;;;;;;;0.20;0.10;;;;;;;1.07;91.23;101075.53;5067220;28;20924;-56
2021/04/08 04:58:23;;;;;;;0.20;0.10;;;;;;;1.08;90.53;101069.44;5064181;28;20450;-56
2021/04/08 05:00:50;;;;;;;0.20;0.10;;;;;;;1.11;91.29;101073.03;5064543;28;20563;-56
2021/04/08 05:03:16;;;;;;;0.20;0.10;;;;;;;1.09;89.87;101068.56;5061233;28;20453;-56
2021/04/08 05:05:42;;;;;;;0.20;0.10;;;;;;;1.34;88.89;101070.00;5066204;28;20839;-56
2021/04/08 05:08:08;;;;;;;0.30;0.20;;;;;;;1.46;87.94;101078.13;5062039;28;20540;-56
2021/04/08 05:10:34;;;;;;;0.20;0.10;;;;;;;1.60;87.66;101075.78;5059266;28;20466;-57
2021/04/08 05:13:00;;;;;;;0.20;0.10;;;;;;;1.52;87.07;101073.03;5064167;28;20450;-56
2021/04/08 05:15:26;;;;;;;0.20;0.10;;;;;;;1.44;87.93;101077.22;5066169;28;20871;-56
2021/04/08 05:18:10;;;;;;;0.20;0.10;;;;;;;1.30;89.30;101082.16;5063738;28;20863;-56
2021/04/08 05:20:36;;;;;;;0.20;0.10;;;;;;;1.43;90.45;101086.81;5059200;28;20889;-56
2021/04/08 05:23:03;;;;;;;0.20;0.10;;;;;;;1.55;89.32;101088.81;5061209;28;20488;-56
2021/04/08 05:25:29;;;;;;;0.20;0.10;;;;;;;1.48;89.22;101084.28;5066007;28;20971;-56
2021/04/08 05:27:55;;;;;;;0.20;0.20;;;;;;;1.47;87.98;101086.00;5064341;28;20791;-56
2021/04/08 05:30:21;;;;;;;0.20;0.10;;;;;;;1.73;87.03;101094.41;5059131;28;20536;-56
2021/04/08 05:32:47;;;;;;;0.20;0.10;;;;;;;1.84;87.26;101099.88;5060798;28;20466;-57
2021/04/08 05:35:14;;;;;;;0.20;0.10;;;;;;;1.88;86.35;101101.69;5059049;28;20456;-56
2021/04/08 05:37:40;;;;;;;0.30;0.20;;;;;;;1.92;86.67;101100.00;5060059;28;20903;-57
2021/04/08 05:40:07;;;;;;;0.20;0.10;;;;;;;1.93;85.94;101100.06;5065634;28;20489;-56
2021/04/08 05:42:33;;;;;;;0.20;0.10;;;;;;;2.00;85.17;101104.56;5064505;28;20866;-57
2021/04/08 05:44:59;;;;;;;0.20;0.10;;;;;;;2.07;85.75;101108.19;5059052;28;20446;-56
2021/04/08 05:47:25;;;;;;;0.20;0.10;;;;;;;2.14;85.72;101117.03;5060578;28;20451;-56
2021/04/08 05:49:52;;;;;;;0.20;0.10;;;;;;;2.18;85.31;101109.25;5065628;28;20470;-56
2021/04/08 05:52:18;;;;;;;0.20;0.10;;;;;;;2.23;85.64;101115.47;5064220;28;20442;-56
2021/04/08 05:54:45;;;;;;;0.20;0.10;;;;;;;2.30;85.04;101109.47;5058841;28;20453;-57
2021/04/08 05:57:11;;;;;;;0.20;0.10;;;;;;;2.42;85.02;101107.94;5058144;28;20543;-56
2021/04/08 05:59:37;;;;;;;0.20;0.10;;;;;;;2.51;83.70;101113.34;5063039;28;20492;-56
2021/04/08 06:02:04;;;;;;;0.20;0.10;;;;;;;2.63;83.71;101117.06;5067239;22;20509;-78
2021/04/08 06:04:30;;;;;;;0.30;0.20;;;;;;;2.55;83.37;101123.03;5037320;28;20471;-78
2021/04/08 06:06:56;;;;;;;0.20;0.10;;;;;;;2.74;83.16;101113.72;5037274;28;20451;-78
2021/04/08 06:09:22;;;;;;;0.20;0.20;;;;;;;2.75;82.28;101128.66;5056072;28;20459;-78
2021/04/08 06:11:48;;;;;;;0.20;0.17;;;;;;;3.05;81.86;101130.88;5038201;28;20951;-78
2021/04/08 06:14:14;;;;;;;0.20;0.10;;;;;;;3.17;80.58;101125.81;5037491;28;20979;-78
2021/04/08 06:16:40;;;;;;;0.20;0.20;;;;;;;3.27;80.95;101141.69;5042966;22;20500;-51
2021/04/08 06:19:06;;;;;;;1.00;0.67;;;;;;;3.41;80.48;101139.28;5032294;28;20455;-51
2021/04/08 06:21:36;;;;;;;0.20;0.10;;;;;;;3.42;79.28;101134.91;5033514;28;20496;-51
2021/04/08 06:24:03;;;;;;;0.73;0.50;;;;;;;3.69;78.25;101144.91;5033192;28;20455;-51
2021/04/08 06:26:29;;;;;;;0.30;0.10;;;;;;;3.88;78.45;101140.78;5031479;28;20526;-51
2021/04/08 06:31:47;;;;;;;0.20;0.10;;;;;;;4.04;76.69;101142.72;4933056;29;20487;-56
2021/04/08 06:34:13;;;;;;;0.30;0.20;;;;;;;4.04;76.16;101145.34;4935014;29;20459;-56
2021/04/08 06:36:39;;;;;;;0.20;0.10;;;;;;;4.20;75.72;101149.91;4934962;29;20499;-56
2021/04/08 06:39:06;;;;;;;0.20;0.20;;;;;;;4.44;74.51;101147.56;4936281;29;20452;-56
2021/04/08 06:41:36;;;;;;;0.20;0.10;;;;;;;4.18;75.19;101149.03;4953990;28;20455;-56
2021/04/08 06:44:03;;;;;;;0.20;0.20;;;;;;;4.16;74.85;101156.03;4954094;28;20803;-55
2021/04/08 06:46:34;;;;;;;0.20;0.10;;;;;;;4.42;73.77;101151.94;4953703;28;20451;-56
2021/04/08 06:49:23;;;;;;;0.20;0.20;;;;;;;4.40;73.55;101158.94;4954207;28;20580;-55
2021/04/08 06:51:56;;;;;;;0.50;0.50;;;;;;;4.28;73.52;101156.16;4942602;29;20558;-56
2021/04/08 06:54:24;;;;;;;0.30;0.20;;;;;;;4.26;72.79;101164.91;4953730;28;20525;-56
2021/04/08 06:56:51;;;;;;;0.20;0.20;;;;;;;4.12;73.72;101176.16;4953656;28;20490;-56
2021/04/08 06:59:17;;;;;;;0.20;0.10;;;;;;;4.56;72.88;101166.97;4953884;28;20478;-56
2021/04/08 07:01:45;;;;;;;1.07;1.07;;;;;;;4.31;72.42;101165.84;4953903;28;20455;-56
2021/04/08 07:04:12;;;;;;;0.20;0.10;;;;;;;4.48;72.75;101161.63;4953781;28;20455;-57
2021/04/08 07:06:39;;;;;;;0.20;0.10;;;;;;;4.60;72.52;101168.78;4953804;28;20458;-56
2021/04/08 07:09:08;;;;;;;1.23;1.23;;;;;;;4.55;72.46;101171.38;4953573;28;20807;-56
2021/04/08 07:11:36;;;;;;;0.33;0.30;;;;;;;4.77;72.16;101172.44;4953469;28;20455;-56
2021/04/08 07:14:06;;;;;;;0.20;0.10;;;;;;;4.44;72.52;101175.63;4953561;28;20459;-56
2021/04/08 07:16:33;;;;;;;0.20;0.10;;;;;;;4.32;72.54;101171.13;4953414;29;20494;-56
2021/04/08 07:18:59;;;;;;;0.20;0.10;;;;;;;4.40;73.21;101172.09;4955840;28;20454;-56
2021/04/08 07:21:34;;;;;;;0.20;0.10;;;;;;;4.41;72.88;101165.97;4957092;28;20455;-56
2021/04/08 07:24:06;;;;;;;0.20;0.10;;;;;;;4.76;72.96;101168.91;4956759;29;21019;-56
2021/04/08 07:26:32;;;;;;;0.23;0.13;;;;;;;4.67;71.76;101174.13;4956808;28;20869;-56
2021/04/08 07:28:58;;;;;;;0.20;0.10;;;;;;;4.75;71.59;101176.81;4956985;28;20458;-56
2021/04/08 07:31:32;;;;;;;0.30;0.20;;;;;;;4.71;72.65;101177.66;4956917;29;20511;-55
2021/04/08 07:34:00;;;;;;;0.33;0.30;;;;;;;4.68;71.35;101181.16;4957012;28;20577;-55
2021/04/08 07:36:30;;;;;;;0.20;0.10;;;;;;;4.61;72.04;101178.44;4956678;29;20482;-55
2021/04/08 07:39:06;;;;;;;0.20;0.10;;;;;;;4.94;71.72;101175.25;4957284;28;20478;-55
2021/04/08 07:41:35;;;;;;;0.40;0.40;;;;;;;4.97;71.18;101175.25;4956767;29;20489;-55
2021/04/08 07:44:04;;;;;;;0.23;0.10;;;;;;;5.00;71.64;101178.81;4956911;28;20455;-56
2021/04/08 07:46:32;;;;;;;0.20;0.10;;;;;;;4.93;71.45;101181.34;4956756;29;20451;-56
2021/04/08 07:48:58;;;;;;;0.20;0.10;;;;;;;5.02;71.39;101178.81;4955236;28;20534;-56
2021/04/08 07:51:33;;;;;;;0.20;0.13;;;;;;;4.93;71.09;101179.59;4956682;28;20873;-56
2021/04/08 07:54:17;;;;;;;0.20;0.20;;;;;;;4.89;71.44;101188.34;4955675;29;20450;-56
2021/04/08 07:56:44;;;;;;;0.20;0.13;;;;;;;4.96;71.53;101184.91;4945439;29;20491;-56
2021/04/08 07:59:18;;;;;;;0.30;0.20;;;;;;;5.12;71.15;101183.28;4956407;28;20963;-56
2021/04/08 08:01:46;;;;;;;0.20;0.10;;;;;;;4.91;71.34;101194.50;4956563;28;20866;-56
2021/04/08 08:04:26;;;;;;;0.30;0.20;;;;;;;4.96;71.58;101200.72;4956551;28;20534;-55
2021/04/08 08:06:54;;;;;;;0.30;0.20;;;;;;;5.12;70.63;101199.09;4956465;28;20448;-56
2021/04/08 08:09:25;;;;;;;0.20;0.10;;;;;;;5.59;69.14;101203.81;4956340;28;20611;-56
2021/04/08 08:11:54;;;;;;;0.20;0.20;;;;;;;5.17;68.88;101200.00;4956163;28;20455;-56
2021/04/08 08:14:35;;;;;;;0.30;0.20;;;;;;;4.99;70.32;101200.75;4956476;28;20473;-56
2021/04/08 08:17:06;;;;;;;0.30;0.20;;;;;;;5.00;69.98;101199.88;4956250;28;20497;-56
2021/04/08 08:19:34;;;;;;;0.20;0.10;;;;;;;5.30;69.88;101201.00;4954981;28;20475;-56
2021/04/08 08:22:03;;;;;;;0.20;0.20;;;;;;;4.89;70.39;101204.16;4956056;28;20451;-56
2021/04/08 08:24:30;;;;;;;0.30;0.23;;;;;;;4.93;71.21;101205.94;4956059;28;20462;-56
2021/04/08 08:26:56;;;;;;;0.30;0.20;;;;;;;5.20;70.81;101209.69;4955503;28;20460;-56
2021/04/08 08:29:25;;;;;;;0.20;0.10;;;;;;;5.28;71.17;101205.38;4950200;28;20490;-55
2021/04/08 08:32:00;;;;;;;0.20;0.20;;;;;;;5.42;68.94;101209.00;4955812;28;20466;-56
2021/04/08 08:34:35;;;;;;;0.20;0.10;;;;;;;5.64;69.87;101208.28;4955678;28;20875;-56
2021/04/08 08:37:09;;;;;;;0.20;0.20;;;;;;;5.46;69.70;101209.88;4955722;28;20637;-56
2021/04/08 08:39:38;;;;;;;0.20;0.10;;;;;;;5.76;69.74;101211.88;4955532;28;20475;-56
2021/04/08 08:42:08;;;;;;;0.23;0.17;;;;;;;5.92;68.72;101213.75;4943245;29;20490;-55
2021/04/08 08:44:34;;;;;;;0.30;0.20;;;;;;;5.77;68.42;101213.63;4954542;29;20491;-56
2021/04/08 08:47:12;;;;;;;0.30;0.17;;;;;;;5.70;69.13;101196.88;4955605;29;20457;-55
2021/04/08 08:49:42;;;;;;;0.23;0.20;;;;;;;5.90;69.17;101216.38;4955525;28;20522;-55
2021/04/08 08:52:12;;;;;;;0.20;0.20;;;;;;;6.10;68.04;101215.59;4955544;28;20466;-56
2021/04/08 08:54:38;;;;;;;0.30;0.17;;;;;;;6.21;67.52;101216.53;4955130;28;20463;-56
2021/04/08 08:57:06;;;;;;;0.20;0.10;;;;;;;6.12;67.42;101213.81;4955067;29;20495;-56
2021/04/08 08:59:32;;;;;;;0.30;0.10;;;;;;;6.44;66.64;101219.22;4955347;28;20502;-56
2021/04/08 09:01:59;;;;;;;0.30;0.20;;;;;;;6.38;66.22;101220.09;4955465;28;20463;-55
2021/04/08 09:04:28;;;;;;;0.30;0.17;;;;;;;6.38;66.11;101219.22;4954702;28;20455;-56
2021/04/08 09:06:58;;;;;;;0.30;0.20;;;;;;;6.77;65.48;101224.59;4955274;28;20451;-56
2021/04/08 09:09:27;;;;;;;0.30;0.20;;;;;;;7.33;64.40;101210.56;4955151;28;20482;-56
2021/04/08 09:11:54;;;;;;;0.30;0.20;;;;;;;6.83;63.81;101216.69;4955216;28;20447;-56
2021/04/08 09:14:21;;;;;;;0.30;0.20;;;;;;;6.89;64.22;101209.66;4954816;28;20940;-56
2021/04/08 09:16:51;;;;;;;0.30;0.20;;;;;;;6.96;64.38;101216.69;4955036;29;20506;-56
2021/04/08 09:19:31;;;;;;;0.30;0.20;;;;;;;7.15;62.83;101214.97;4954895;28;20477;-57
2021/04/08 09:22:00;;;;;;;0.30;0.20;;;;;;;6.94;62.13;101208.78;4954894;28;20514;-56
2021/04/08 09:24:46;;;;;;;0.30;0.20;;;;;;;7.63;61.05;101201.69;4953415;29;20459;-56
2021/04/08 09:27:13;;;;;;;0.30;0.20;;;;;;;8.13;59.49;101194.50;4955044;28;20439;-56
2021/04/08 09:29:48;;;;;;;0.30;0.10;;;;;;;8.24;57.54;101196.22;4954826;28;20494;-56
2021/04/08 09:32:34;;;;;;;0.30;0.10;;;;;;;8.54;56.11;101192.56;4942755;29;20455;-56
2021/04/08 09:35:09;;;;;;;0.30;0.20;;;;;;;7.93;57.80;101199.84;4954408;28;20824;-56
2021/04/08 09:37:44;;;;;;;0.30;0.20;;;;;;;8.46;58.24;101199.66;4954571;28;20502;-56
2021/04/08 09:40:23;;;;;;;0.30;0.20;;;;;;;8.93;55.54;101194.97;4954158;28;20470;-56
2021/04/08 09:43:14;;;;;;;0.30;0.20;;;;;;;8.06;56.38;101187.44;4954737;28;20459;-55
2021/04/08 09:45:50;;;;;;;0.30;0.10;;;;;;;8.46;55.52;101188.19;4948629;29;20502;-56
2021/04/08 09:48:40;;;;;;;0.30;0.20;;;;;;;8.96;54.85;101177.25;4954799;28;20447;-56
2021/04/08 09:51:07;;;;;;;0.30;0.20;;;;;;;8.98;53.31;101175.47;4954265;28;20463;-56
2021/04/08 09:53:39;;;;;;;0.30;0.20;;;;;;;8.71;55.65;101183.63;4954521;29;20522;-55
2021/04/08 09:56:07;;;;;;;0.30;0.20;;;;;;;8.21;54.19;101177.66;4954306;29;20518;-55
2021/04/08 09:58:36;;;;;;;0.30;0.10;;;;;;;9.26;54.03;101164.63;4953961;28;20502;-56
2021/04/08 10:01:05;;;;;;;0.30;0.20;;;;;;;8.66;52.99;101173.06;4954161;28;20480;-56
2021/04/08 10:03:31;;;;;;;0.30;0.20;;;;;;;8.16;55.08;101173.28;4954377;28;20967;-55
2021/04/08 10:05:59;;;;;;;0.30;0.20;;;;;;;8.24;54.99;101166.22;4954387;28;20466;-56
2021/04/08 10:08:33;;;;;;;0.30;0.20;;;;;;;8.43;56.17;101169.66;4952751;29;20451;-55
2021/04/08 10:11:00;;;;;;;0.30;0.20;;;;;;;8.43;55.17;101161.72;4954158;28;20468;-55
2021/04/08 10:13:27;;;;;;;0.30;0.20;;;;;;;8.47;54.53;101166.09;4954322;29;20458;-56
2021/04/08 10:15:55;;;;;;;0.30;0.20;;;;;;;8.70;54.39;101171.25;4954704;29;20455;-56
2021/04/08 10:18:24;;;;;;;0.30;0.20;;;;;;;8.37;54.33;101169.72;4954246;28;20857;-55
2021/04/08 10:20:55;;;;;;;0.30;0.20;;;;;;;8.26;54.08;101167.06;4953826;28;21075;-56
2021/04/08 10:23:30;;;;;;;0.30;0.20;;;;;;;8.38;52.82;101167.03;4954305;28;20457;-55
2021/04/08 10:25:58;;;;;;;0.30;0.20;;;;;;;7.90;51.46;101165.44;4954295;28;20467;-55
2021/04/08 10:28:26;;;;;;;0.30;0.20;;;;;;;7.91;51.63;101161.91;4954148;28;20530;-56
2021/04/08 10:30:52;;;;;;;0.30;0.20;;;;;;;7.88;53.01;101161.94;4954150;28;20482;-55
2021/04/08 10:33:19;;;;;;;0.30;0.20;;;;;;;8.29;52.27;101164.41;4953732;29;20455;-56
2021/04/08 10:35:47;;;;;;;0.30;0.20;;;;;;;8.30;52.10;101161.75;4953918;28;20459;-56
2021/04/08 10:38:14;;;;;;;0.30;0.20;;;;;;;7.73;57.74;101169.03;4953852;28;20585;-56
2021/04/08 10:40:49;;;;;;;0.30;0.20;;;;;;;8.08;57.36;101164.50;4953897;28;20491;-56
2021/04/08 10:43:18;;;;;;;0.30;0.20;;;;;;;7.83;59.50;101164.59;4954112;28;20490;-55
2021/04/08 10:45:59;;;;;;;0.40;0.40;;;;;;;7.39;57.12;101160.28;4953849;28;20990;-55
2021/04/08 10:48:27;;;;;;;0.30;0.20;;;;;;;7.45;58.41;101158.53;4954199;28;20495;-55
2021/04/08 10:50:54;;;;;;;0.30;0.20;;;;;;;7.54;58.74;101148.81;4954248;28;20483;-55
2021/04/08 10:53:26;;;;;;;0.30;0.20;;;;;;;7.51;58.25;101150.56;4955316;28;20872;-55
2021/04/08 10:55:54;;;;;;;0.30;0.10;;;;;;;7.73;57.20;101142.56;4957451;28;20867;-55
2021/04/08 10:58:25;;;;;;;2.33;0.50;;;;;;;7.94;58.00;101149.53;4957401;28;20502;-55
2021/04/08 11:00:55;;;;;;;0.30;0.20;;;;;;;8.07;56.90;101150.38;4957676;28;20471;-56
2021/04/08 11:03:26;;;;;;;0.30;0.20;;;;;;;8.34;55.26;101146.75;4957524;28;20462;-56
2021/04/08 11:05:52;;;;;;;0.30;0.10;;;;;;;8.07;53.76;101144.19;4957525;28;20455;-55
2021/04/08 11:08:20;;;;;;;0.30;0.20;;;;;;;8.11;54.75;101144.19;4957289;29;20451;-55
2021/04/08 11:10:47;;;;;;;0.30;0.20;;;;;;;8.19;54.86;101138.84;4957579;28;20471;-56
2021/04/08 11:13:13;;;;;;;0.30;0.20;;;;;;;8.27;53.13;101140.56;4956863;28;20860;-56
2021/04/08 11:15:43;;;;;;;0.30;0.20;;;;;;;8.29;53.29;101145.88;4957012;28;20514;-56
2021/04/08 11:18:20;;;;;;;0.30;0.10;;;;;;;8.11;52.56;101144.19;4957311;28;20490;-55
2021/04/08 11:20:50;;;;;;;0.30;0.17;;;;;;;8.28;52.60;101137.03;4956800;28;20475;-55
2021/04/08 11:23:19;;;;;;;0.30;0.20;;;;;;;8.39;52.29;101137.00;4957377;28;20467;-56
2021/04/08 11:26:03;;;;;;;0.30;0.20;;;;;;;8.51;51.95;101144.00;4957017;28;20459;-55
2021/04/08 11:28:29;;;;;;;0.30;0.20;;;;;;;8.23;53.53;101136.19;4956990;29;20831;-55
2021/04/08 11:30:55;;;;;;;0.30;0.17;;;;;;;8.26;53.57;101127.34;4956692;28;20530;-56
2021/04/08 11:33:25;;;;;;;0.30;0.20;;;;;;;8.44;53.44;101129.91;4956728;28;20882;-56
2021/04/08 11:35:52;;;;;;;0.30;0.20;;;;;;;8.07;53.32;101115.94;4957088;29;20459;-56
2021/04/08 11:38:22;;;;;;;0.30;0.20;;;;;;;8.28;54.29;101120.28;4956568;28;20504;-55
2021/04/08 11:40:52;;;;;;;0.30;0.20;;;;;;;8.45;51.36;101112.25;4956358;28;20491;-55
2021/04/08 11:43:33;;;;;;;0.30;0.20;;;;;;;8.66;50.76;101119.19;4956930;28;20451;-55
2021/04/08 11:46:01;;;;;;;0.30;0.20;;;;;;;8.51;50.50;101114.88;4956999;28;20469;-56